sensor_id;sensor_type;location;lat;lon;timestamp;P1;durP1;ratioP1;P2;durP2;ratioP2
37201;SDS011;37799;52.390;6.136;2024-02-21T00:00:47;15.43;;;4.32;;
37201;SDS011;37799;52.390;6.136;2024-02-21T00:03:12;12.30;;;4.63;;
37201;SDS011;37799;52.390;6.136;2024-02-21T00:05:37;14.00;;;4.53;;
37201;SDS011;37799;52.390;6.136;2024-02-21T00:08:03;13.48;;;4.38;;
37201;SDS011;37799;52.390;6.136;2024-02-21T00:10:28;13.85;;;4.47;;
37201;SDS011;37799;52.390;6.136;2024-02-21T00:12:54;12.10;;;5.10;;
37201;SDS011;37799;52.390;6.136;2024-02-21T00:15:19;12.57;;;4.15;;
37201;SDS011;37799;52.390;6.136;2024-02-21T00:17:45;11.27;;;3.97;;
37201;SDS011;37799;52.390;6.136;2024-02-21T00:20:10;11.60;;;4.25;;
37201;SDS011;37799;52.390;6.136;2024-02-21T00:22:36;14.55;;;3.72;;
37201;SDS011;37799;52.390;6.136;2024-02-21T00:25:02;11.63;;;4.53;;
37201;SDS011;37799;52.390;6.136;2024-02-21T00:27:27;11.77;;;4.40;;
37201;SDS011;37799;52.390;6.136;2024-02-21T00:29:53;11.73;;;3.67;;
37201;SDS011;37799;52.390;6.136;2024-02-21T00:32:18;14.15;;;4.20;;
37201;SDS011;37799;52.390;6.136;2024-02-21T00:34:43;13.18;;;3.97;;
37201;SDS011;37799;52.390;6.136;2024-02-21T00:37:09;12.88;;;4.05;;
37201;SDS011;37799;52.390;6.136;2024-02-21T00:39:34;14.15;;;3.85;;
37201;SDS011;37799;52.390;6.136;2024-02-21T00:41:59;16.60;;;4.05;;
37201;SDS011;37799;52.390;6.136;2024-02-21T00:44:25;10.77;;;3.35;;
37201;SDS011;37799;52.390;6.136;2024-02-21T00:46:50;10.30;;;4.03;;
37201;SDS011;37799;52.390;6.136;2024-02-21T00:49:15;13.90;;;4.30;;
37201;SDS011;37799;52.390;6.136;2024-02-21T00:51:41;11.35;;;3.60;;
37201;SDS011;37799;52.390;6.136;2024-02-21T00:54:06;10.35;;;3.70;;
37201;SDS011;37799;52.390;6.136;2024-02-21T00:56:31;14.63;;;3.90;;
37201;SDS011;37799;52.390;6.136;2024-02-21T00:58:57;10.23;;;3.55;;
37201;SDS011;37799;52.390;6.136;2024-02-21T01:01:23;9.27;;;3.45;;
37201;SDS011;37799;52.390;6.136;2024-02-21T01:03:50;10.50;;;2.85;;
37201;SDS011;37799;52.390;6.136;2024-02-21T01:06:18;11.57;;;3.47;;
37201;SDS011;37799;52.390;6.136;2024-02-21T01:08:44;18.33;;;4.32;;
37201;SDS011;37799;52.390;6.136;2024-02-21T01:11:09;8.43;;;3.50;;
37201;SDS011;37799;52.390;6.136;2024-02-21T01:13:34;15.05;;;3.55;;
37201;SDS011;37799;52.390;6.136;2024-02-21T01:16:00;11.02;;;4.03;;
37201;SDS011;37799;52.390;6.136;2024-02-21T01:18:25;14.60;;;3.92;;
37201;SDS011;37799;52.390;6.136;2024-02-21T01:20:50;13.10;;;4.15;;
37201;SDS011;37799;52.390;6.136;2024-02-21T01:23:16;12.57;;;3.70;;
37201;SDS011;37799;52.390;6.136;2024-02-21T01:25:41;11.23;;;3.38;;
37201;SDS011;37799;52.390;6.136;2024-02-21T01:28:07;14.10;;;3.63;;
37201;SDS011;37799;52.390;6.136;2024-02-21T01:30:32;11.95;;;4.13;;
37201;SDS011;37799;52.390;6.136;2024-02-21T01:32:58;14.00;;;3.72;;
37201;SDS011;37799;52.390;6.136;2024-02-21T01:35:23;9.85;;;3.40;;
37201;SDS011;37799;52.390;6.136;2024-02-21T01:37:48;16.58;;;3.55;;
37201;SDS011;37799;52.390;6.136;2024-02-21T01:40:14;12.43;;;3.42;;
37201;SDS011;37799;52.390;6.136;2024-02-21T01:42:39;8.95;;;3.40;;
37201;SDS011;37799;52.390;6.136;2024-02-21T01:45:06;12.48;;;4.07;;
37201;SDS011;37799;52.390;6.136;2024-02-21T01:47:31;13.68;;;3.72;;
37201;SDS011;37799;52.390;6.136;2024-02-21T01:49:57;12.45;;;3.60;;
37201;SDS011;37799;52.390;6.136;2024-02-21T01:52:22;13.48;;;3.83;;
37201;SDS011;37799;52.390;6.136;2024-02-21T01:54:48;14.63;;;4.20;;
37201;SDS011;37799;52.390;6.136;2024-02-21T01:57:13;10.48;;;4.32;;
37201;SDS011;37799;52.390;6.136;2024-02-21T01:59:39;7.68;;;1.85;;
37201;SDS011;37799;52.390;6.136;2024-02-21T02:02:05;9.85;;;3.00;;
37201;SDS011;37799;52.390;6.136;2024-02-21T02:04:30;21.27;;;4.03;;
37201;SDS011;37799;52.390;6.136;2024-02-21T02:06:56;13.80;;;3.65;;
37201;SDS011;37799;52.390;6.136;2024-02-21T02:09:24;10.60;;;3.72;;
37201;SDS011;37799;52.390;6.136;2024-02-21T02:11:50;14.20;;;3.40;;
37201;SDS011;37799;52.390;6.136;2024-02-21T02:14:16;12.77;;;3.38;;
37201;SDS011;37799;52.390;6.136;2024-02-21T02:16:41;9.25;;;2.50;;
37201;SDS011;37799;52.390;6.136;2024-02-21T02:19:06;16.02;;;3.97;;
37201;SDS011;37799;52.390;6.136;2024-02-21T02:21:37;10.10;;;3.15;;
37201;SDS011;37799;52.390;6.136;2024-02-21T02:24:07;12.73;;;3.60;;
37201;SDS011;37799;52.390;6.136;2024-02-21T02:26:33;10.73;;;3.83;;
37201;SDS011;37799;52.390;6.136;2024-02-21T02:28:58;12.48;;;4.47;;
37201;SDS011;37799;52.390;6.136;2024-02-21T02:31:26;9.63;;;3.60;;
37201;SDS011;37799;52.390;6.136;2024-02-21T02:33:52;12.32;;;3.67;;
37201;SDS011;37799;52.390;6.136;2024-02-21T02:36:18;10.60;;;3.70;;
37201;SDS011;37799;52.390;6.136;2024-02-21T02:38:43;15.80;;;3.97;;
37201;SDS011;37799;52.390;6.136;2024-02-21T02:41:08;11.68;;;3.35;;
37201;SDS011;37799;52.390;6.136;2024-02-21T02:43:33;14.23;;;3.72;;
37201;SDS011;37799;52.390;6.136;2024-02-21T02:45:59;16.52;;;3.58;;
37201;SDS011;37799;52.390;6.136;2024-02-21T02:48:24;17.10;;;3.97;;
37201;SDS011;37799;52.390;6.136;2024-02-21T02:50:49;10.88;;;3.55;;
37201;SDS011;37799;52.390;6.136;2024-02-21T02:53:15;10.75;;;3.50;;
37201;SDS011;37799;52.390;6.136;2024-02-21T02:55:40;13.63;;;4.18;;
37201;SDS011;37799;52.390;6.136;2024-02-21T02:58:05;14.98;;;4.50;;
37201;SDS011;37799;52.390;6.136;2024-02-21T03:00:31;14.45;;;4.22;;
37201;SDS011;37799;52.390;6.136;2024-02-21T03:03:00;12.35;;;3.58;;
37201;SDS011;37799;52.390;6.136;2024-02-21T03:05:27;9.07;;;3.22;;
37201;SDS011;37799;52.390;6.136;2024-02-21T03:07:52;16.23;;;4.28;;
37201;SDS011;37799;52.390;6.136;2024-02-21T03:10:17;17.15;;;4.38;;
37201;SDS011;37799;52.390;6.136;2024-02-21T03:12:43;17.92;;;4.78;;
37201;SDS011;37799;52.390;6.136;2024-02-21T03:15:08;14.70;;;4.15;;
37201;SDS011;37799;52.390;6.136;2024-02-21T03:17:34;13.70;;;4.57;;
37201;SDS011;37799;52.390;6.136;2024-02-21T03:20:00;12.48;;;4.50;;
37201;SDS011;37799;52.390;6.136;2024-02-21T03:22:29;10.25;;;4.15;;
37201;SDS011;37799;52.390;6.136;2024-02-21T03:24:54;13.18;;;5.05;;
37201;SDS011;37799;52.390;6.136;2024-02-21T03:27:20;13.85;;;4.30;;
37201;SDS011;37799;52.390;6.136;2024-02-21T03:29:45;16.40;;;4.78;;
37201;SDS011;37799;52.390;6.136;2024-02-21T03:32:10;13.73;;;4.15;;
37201;SDS011;37799;52.390;6.136;2024-02-21T03:34:35;14.43;;;4.63;;
37201;SDS011;37799;52.390;6.136;2024-02-21T03:37:01;17.63;;;4.65;;
37201;SDS011;37799;52.390;6.136;2024-02-21T03:39:26;15.15;;;5.70;;
37201;SDS011;37799;52.390;6.136;2024-02-21T03:41:52;16.10;;;4.40;;
37201;SDS011;37799;52.390;6.136;2024-02-21T03:44:17;15.77;;;4.82;;
37201;SDS011;37799;52.390;6.136;2024-02-21T03:46:42;17.00;;;4.97;;
37201;SDS011;37799;52.390;6.136;2024-02-21T03:49:08;15.30;;;4.50;;
37201;SDS011;37799;52.390;6.136;2024-02-21T03:51:33;12.50;;;4.65;;
37201;SDS011;37799;52.390;6.136;2024-02-21T03:53:58;15.10;;;4.65;;
37201;SDS011;37799;52.390;6.136;2024-02-21T03:56:23;14.23;;;4.68;;
37201;SDS011;37799;52.390;6.136;2024-02-21T03:58:49;13.35;;;4.25;;
37201;SDS011;37799;52.390;6.136;2024-02-21T04:01:15;16.88;;;4.63;;
37201;SDS011;37799;52.390;6.136;2024-02-21T04:03:41;15.60;;;5.30;;
37201;SDS011;37799;52.390;6.136;2024-02-21T04:06:08;13.18;;;4.47;;
37201;SDS011;37799;52.390;6.136;2024-02-21T04:08:33;12.55;;;5.13;;
37201;SDS011;37799;52.390;6.136;2024-02-21T04:10:58;14.48;;;5.30;;
37201;SDS011;37799;52.390;6.136;2024-02-21T04:13:24;21.48;;;6.35;;
37201;SDS011;37799;52.390;6.136;2024-02-21T04:15:49;13.63;;;5.20;;
37201;SDS011;37799;52.390;6.136;2024-02-21T04:18:14;12.32;;;5.10;;
37201;SDS011;37799;52.390;6.136;2024-02-21T04:20:40;13.63;;;5.28;;
37201;SDS011;37799;52.390;6.136;2024-02-21T04:23:05;15.77;;;4.78;;
37201;SDS011;37799;52.390;6.136;2024-02-21T04:25:30;10.32;;;4.85;;
37201;SDS011;37799;52.390;6.136;2024-02-21T04:27:56;17.02;;;5.30;;
37201;SDS011;37799;52.390;6.136;2024-02-21T04:30:21;16.17;;;5.07;;
37201;SDS011;37799;52.390;6.136;2024-02-21T04:32:46;14.35;;;5.40;;
37201;SDS011;37799;52.390;6.136;2024-02-21T04:35:12;16.25;;;5.28;;
37201;SDS011;37799;52.390;6.136;2024-02-21T04:37:37;13.30;;;4.60;;
37201;SDS011;37799;52.390;6.136;2024-02-21T04:40:02;12.45;;;5.03;;
37201;SDS011;37799;52.390;6.136;2024-02-21T04:42:28;16.35;;;5.70;;
37201;SDS011;37799;52.390;6.136;2024-02-21T04:44:53;15.43;;;5.50;;
37201;SDS011;37799;52.390;6.136;2024-02-21T04:47:18;16.92;;;6.07;;
37201;SDS011;37799;52.390;6.136;2024-02-21T04:49:45;14.07;;;5.57;;
37201;SDS011;37799;52.390;6.136;2024-02-21T04:52:10;15.20;;;6.40;;
37201;SDS011;37799;52.390;6.136;2024-02-21T04:54:36;15.75;;;6.13;;
37201;SDS011;37799;52.390;6.136;2024-02-21T04:57:01;13.73;;;4.70;;
37201;SDS011;37799;52.390;6.136;2024-02-21T04:59:27;14.30;;;5.57;;
37201;SDS011;37799;52.390;6.136;2024-02-21T05:01:52;14.25;;;5.68;;
37201;SDS011;37799;52.390;6.136;2024-02-21T05:04:17;13.35;;;4.95;;
37201;SDS011;37799;52.390;6.136;2024-02-21T05:06:43;15.55;;;5.78;;
37201;SDS011;37799;52.390;6.136;2024-02-21T05:09:08;21.92;;;6.28;;
37201;SDS011;37799;52.390;6.136;2024-02-21T05:11:35;16.30;;;5.55;;
37201;SDS011;37799;52.390;6.136;2024-02-21T05:14:00;16.27;;;6.00;;
37201;SDS011;37799;52.390;6.136;2024-02-21T05:16:26;16.00;;;5.63;;
37201;SDS011;37799;52.390;6.136;2024-02-21T05:18:51;21.45;;;6.07;;
37201;SDS011;37799;52.390;6.136;2024-02-21T05:21:17;20.65;;;5.93;;
37201;SDS011;37799;52.390;6.136;2024-02-21T05:23:42;16.95;;;4.70;;
37201;SDS011;37799;52.390;6.136;2024-02-21T05:26:07;18.08;;;5.93;;
37201;SDS011;37799;52.390;6.136;2024-02-21T05:28:33;16.15;;;5.45;;
37201;SDS011;37799;52.390;6.136;2024-02-21T05:30:58;17.98;;;6.38;;
37201;SDS011;37799;52.390;6.136;2024-02-21T05:33:24;17.10;;;6.80;;
37201;SDS011;37799;52.390;6.136;2024-02-21T05:35:49;15.15;;;4.90;;
37201;SDS011;37799;52.390;6.136;2024-02-21T05:38:15;17.10;;;6.25;;
37201;SDS011;37799;52.390;6.136;2024-02-21T05:40:40;16.55;;;5.28;;
37201;SDS011;37799;52.390;6.136;2024-02-21T05:43:09;18.98;;;6.20;;
37201;SDS011;37799;52.390;6.136;2024-02-21T05:45:34;16.23;;;4.95;;
37201;SDS011;37799;52.390;6.136;2024-02-21T05:48:00;15.68;;;5.88;;
37201;SDS011;37799;52.390;6.136;2024-02-21T05:50:25;16.90;;;4.97;;
37201;SDS011;37799;52.390;6.136;2024-02-21T05:52:53;16.02;;;4.47;;
37201;SDS011;37799;52.390;6.136;2024-02-21T05:55:20;12.10;;;4.70;;
37201;SDS011;37799;52.390;6.136;2024-02-21T05:57:45;13.27;;;4.95;;
37201;SDS011;37799;52.390;6.136;2024-02-21T06:00:11;13.98;;;4.78;;
37201;SDS011;37799;52.390;6.136;2024-02-21T06:02:37;13.70;;;4.75;;
37201;SDS011;37799;52.390;6.136;2024-02-21T06:05:02;16.92;;;4.95;;
37201;SDS011;37799;52.390;6.136;2024-02-21T06:07:27;14.43;;;4.70;;
37201;SDS011;37799;52.390;6.136;2024-02-21T06:09:53;12.30;;;4.55;;
37201;SDS011;37799;52.390;6.136;2024-02-21T06:12:18;17.38;;;5.13;;
37201;SDS011;37799;52.390;6.136;2024-02-21T06:14:43;14.10;;;4.10;;
37201;SDS011;37799;52.390;6.136;2024-02-21T06:17:09;17.02;;;4.63;;
37201;SDS011;37799;52.390;6.136;2024-02-21T06:19:34;13.10;;;5.30;;
37201;SDS011;37799;52.390;6.136;2024-02-21T06:22:00;14.45;;;5.05;;
37201;SDS011;37799;52.390;6.136;2024-02-21T06:24:25;16.08;;;5.15;;
37201;SDS011;37799;52.390;6.136;2024-02-21T06:26:50;15.73;;;5.15;;
37201;SDS011;37799;52.390;6.136;2024-02-21T06:29:16;12.50;;;5.35;;
37201;SDS011;37799;52.390;6.136;2024-02-21T06:31:41;14.13;;;5.50;;
37201;SDS011;37799;52.390;6.136;2024-02-21T06:34:06;14.18;;;4.97;;
37201;SDS011;37799;52.390;6.136;2024-02-21T06:36:31;14.48;;;4.50;;
37201;SDS011;37799;52.390;6.136;2024-02-21T06:38:58;15.43;;;5.55;;
37201;SDS011;37799;52.390;6.136;2024-02-21T06:41:23;13.45;;;4.40;;
37201;SDS011;37799;52.390;6.136;2024-02-21T06:43:49;16.42;;;5.28;;
37201;SDS011;37799;52.390;6.136;2024-02-21T06:46:27;13.32;;;4.85;;
37201;SDS011;37799;52.390;6.136;2024-02-21T06:48:56;14.10;;;4.93;;
37201;SDS011;37799;52.390;6.136;2024-02-21T06:51:22;16.42;;;5.80;;
37201;SDS011;37799;52.390;6.136;2024-02-21T06:53:47;13.27;;;4.75;;
37201;SDS011;37799;52.390;6.136;2024-02-21T06:56:13;13.70;;;5.82;;
37201;SDS011;37799;52.390;6.136;2024-02-21T06:58:38;14.05;;;5.57;;
37201;SDS011;37799;52.390;6.136;2024-02-21T07:01:04;21.58;;;7.20;;
37201;SDS011;37799;52.390;6.136;2024-02-21T07:03:29;15.50;;;5.85;;
37201;SDS011;37799;52.390;6.136;2024-02-21T07:05:54;15.25;;;6.28;;
37201;SDS011;37799;52.390;6.136;2024-02-21T07:08:20;18.42;;;6.82;;
37201;SDS011;37799;52.390;6.136;2024-02-21T07:10:45;15.40;;;6.15;;
37201;SDS011;37799;52.390;6.136;2024-02-21T07:13:10;15.90;;;6.88;;
37201;SDS011;37799;52.390;6.136;2024-02-21T07:15:36;20.55;;;7.30;;
37201;SDS011;37799;52.390;6.136;2024-02-21T07:18:02;17.23;;;6.85;;
37201;SDS011;37799;52.390;6.136;2024-02-21T07:20:28;17.65;;;7.07;;
37201;SDS011;37799;52.390;6.136;2024-02-21T07:22:53;16.30;;;6.65;;
37201;SDS011;37799;52.390;6.136;2024-02-21T07:25:19;17.42;;;7.28;;
37201;SDS011;37799;52.390;6.136;2024-02-21T07:27:44;19.25;;;7.20;;
37201;SDS011;37799;52.390;6.136;2024-02-21T07:30:10;16.70;;;7.28;;
37201;SDS011;37799;52.390;6.136;2024-02-21T07:32:35;21.88;;;8.23;;
37201;SDS011;37799;52.390;6.136;2024-02-21T07:35:01;19.85;;;7.38;;
37201;SDS011;37799;52.390;6.136;2024-02-21T07:37:26;19.17;;;7.68;;
37201;SDS011;37799;52.390;6.136;2024-02-21T07:39:52;22.13;;;8.10;;
37201;SDS011;37799;52.390;6.136;2024-02-21T07:42:17;17.90;;;7.80;;
37201;SDS011;37799;52.390;6.136;2024-02-21T07:44:42;17.30;;;7.55;;
37201;SDS011;37799;52.390;6.136;2024-02-21T07:47:07;20.33;;;7.45;;
37201;SDS011;37799;52.390;6.136;2024-02-21T07:49:33;19.08;;;8.13;;
37201;SDS011;37799;52.390;6.136;2024-02-21T07:52:05;19.27;;;8.52;;
37201;SDS011;37799;52.390;6.136;2024-02-21T07:54:30;19.13;;;8.70;;
37201;SDS011;37799;52.390;6.136;2024-02-21T07:56:55;17.98;;;7.28;;
37201;SDS011;37799;52.390;6.136;2024-02-21T07:59:21;21.20;;;8.15;;
37201;SDS011;37799;52.390;6.136;2024-02-21T08:01:46;18.88;;;7.68;;
37201;SDS011;37799;52.390;6.136;2024-02-21T08:04:11;21.13;;;8.15;;
37201;SDS011;37799;52.390;6.136;2024-02-21T08:06:36;19.23;;;7.13;;
37201;SDS011;37799;52.390;6.136;2024-02-21T08:09:02;22.95;;;7.50;;
37201;SDS011;37799;52.390;6.136;2024-02-21T08:11:28;16.75;;;7.40;;
37201;SDS011;37799;52.390;6.136;2024-02-21T08:13:53;18.20;;;6.85;;
37201;SDS011;37799;52.390;6.136;2024-02-21T08:16:18;16.38;;;7.32;;
37201;SDS011;37799;52.390;6.136;2024-02-21T08:18:44;19.77;;;7.22;;
37201;SDS011;37799;52.390;6.136;2024-02-21T08:21:09;19.73;;;8.32;;
37201;SDS011;37799;52.390;6.136;2024-02-21T08:23:35;17.45;;;6.85;;
37201;SDS011;37799;52.390;6.136;2024-02-21T08:26:02;21.20;;;6.95;;
37201;SDS011;37799;52.390;6.136;2024-02-21T08:28:28;15.20;;;5.85;;
37201;SDS011;37799;52.390;6.136;2024-02-21T08:30:54;15.68;;;5.82;;
37201;SDS011;37799;52.390;6.136;2024-02-21T08:33:19;16.40;;;6.03;;
37201;SDS011;37799;52.390;6.136;2024-02-21T08:35:49;18.17;;;5.90;;
37201;SDS011;37799;52.390;6.136;2024-02-21T08:38:14;16.25;;;5.63;;
37201;SDS011;37799;52.390;6.136;2024-02-21T08:40:40;19.00;;;5.70;;
37201;SDS011;37799;52.390;6.136;2024-02-21T08:43:05;16.67;;;5.95;;
37201;SDS011;37799;52.390;6.136;2024-02-21T08:45:30;20.00;;;6.63;;
37201;SDS011;37799;52.390;6.136;2024-02-21T08:47:55;13.50;;;5.70;;
37201;SDS011;37799;52.390;6.136;2024-02-21T08:50:21;13.05;;;5.07;;
37201;SDS011;37799;52.390;6.136;2024-02-21T08:52:46;14.88;;;5.30;;
37201;SDS011;37799;52.390;6.136;2024-02-21T08:55:11;13.95;;;4.70;;
37201;SDS011;37799;52.390;6.136;2024-02-21T08:57:36;14.30;;;4.90;;
37201;SDS011;37799;52.390;6.136;2024-02-21T09:00:03;14.75;;;5.40;;
37201;SDS011;37799;52.390;6.136;2024-02-21T09:02:41;13.68;;;5.35;;
37201;SDS011;37799;52.390;6.136;2024-02-21T09:05:09;13.45;;;4.65;;
37201;SDS011;37799;52.390;6.136;2024-02-21T09:07:35;12.90;;;4.60;;
37201;SDS011;37799;52.390;6.136;2024-02-21T09:10:00;12.88;;;4.90;;
37201;SDS011;37799;52.390;6.136;2024-02-21T09:12:26;16.88;;;4.97;;
37201;SDS011;37799;52.390;6.136;2024-02-21T09:14:51;13.90;;;4.38;;
37201;SDS011;37799;52.390;6.136;2024-02-21T09:17:17;12.88;;;4.80;;
37201;SDS011;37799;52.390;6.136;2024-02-21T09:19:43;11.57;;;4.88;;
37201;SDS011;37799;52.390;6.136;2024-02-21T09:22:09;14.68;;;3.92;;
37201;SDS011;37799;52.390;6.136;2024-02-21T09:24:34;11.88;;;4.15;;
37201;SDS011;37799;52.390;6.136;2024-02-21T09:27:00;12.15;;;4.35;;
37201;SDS011;37799;52.390;6.136;2024-02-21T09:29:25;13.40;;;4.10;;
37201;SDS011;37799;52.390;6.136;2024-02-21T09:31:50;17.33;;;4.70;;
37201;SDS011;37799;52.390;6.136;2024-02-21T09:34:16;15.25;;;4.88;;
37201;SDS011;37799;52.390;6.136;2024-02-21T09:36:41;13.32;;;4.82;;
37201;SDS011;37799;52.390;6.136;2024-02-21T09:39:07;10.90;;;4.25;;
37201;SDS011;37799;52.390;6.136;2024-02-21T09:41:32;11.85;;;4.32;;
37201;SDS011;37799;52.390;6.136;2024-02-21T09:44:04;11.93;;;4.15;;
37201;SDS011;37799;52.390;6.136;2024-02-21T09:46:43;13.48;;;5.35;;
37201;SDS011;37799;52.390;6.136;2024-02-21T09:49:26;11.50;;;3.47;;
37201;SDS011;37799;52.390;6.136;2024-02-21T09:52:03;15.20;;;4.97;;
37201;SDS011;37799;52.390;6.136;2024-02-21T09:54:30;12.68;;;4.05;;
37201;SDS011;37799;52.390;6.136;2024-02-21T09:57:01;15.48;;;4.20;;
37201;SDS011;37799;52.390;6.136;2024-02-21T09:59:28;11.05;;;3.92;;
37201;SDS011;37799;52.390;6.136;2024-02-21T10:01:56;10.65;;;4.07;;
37201;SDS011;37799;52.390;6.136;2024-02-21T10:04:21;14.65;;;4.47;;
37201;SDS011;37799;52.390;6.136;2024-02-21T10:06:46;14.73;;;4.85;;
37201;SDS011;37799;52.390;6.136;2024-02-21T10:09:22;11.00;;;3.85;;
37201;SDS011;37799;52.390;6.136;2024-02-21T10:11:48;11.68;;;4.15;;
37201;SDS011;37799;52.390;6.136;2024-02-21T10:14:14;10.88;;;4.05;;
37201;SDS011;37799;52.390;6.136;2024-02-21T10:16:40;14.23;;;3.92;;
37201;SDS011;37799;52.390;6.136;2024-02-21T10:19:05;14.30;;;4.25;;
37201;SDS011;37799;52.390;6.136;2024-02-21T10:21:31;10.90;;;4.10;;
37201;SDS011;37799;52.390;6.136;2024-02-21T10:23:56;11.45;;;4.30;;
37201;SDS011;37799;52.390;6.136;2024-02-21T10:26:21;13.00;;;4.45;;
37201;SDS011;37799;52.390;6.136;2024-02-21T10:28:47;10.85;;;3.95;;
37201;SDS011;37799;52.390;6.136;2024-02-21T10:31:26;9.35;;;3.63;;
37201;SDS011;37799;52.390;6.136;2024-02-21T10:36:25;10.95;;;4.15;;
37201;SDS011;37799;52.390;6.136;2024-02-21T10:38:51;11.38;;;3.80;;
37201;SDS011;37799;52.390;6.136;2024-02-21T10:41:17;8.65;;;3.03;;
37201;SDS011;37799;52.390;6.136;2024-02-21T10:43:46;11.32;;;3.05;;
37201;SDS011;37799;52.390;6.136;2024-02-21T10:46:15;11.85;;;3.85;;
37201;SDS011;37799;52.390;6.136;2024-02-21T10:48:44;10.00;;;3.58;;
37201;SDS011;37799;52.390;6.136;2024-02-21T10:51:19;12.00;;;3.58;;
37201;SDS011;37799;52.390;6.136;2024-02-21T10:56:34;9.93;;;3.05;;
37201;SDS011;37799;52.390;6.136;2024-02-21T10:59:02;9.70;;;2.97;;
37201;SDS011;37799;52.390;6.136;2024-02-21T11:01:29;10.23;;;3.17;;
37201;SDS011;37799;52.390;6.136;2024-02-21T11:03:57;8.02;;;2.97;;
37201;SDS011;37799;52.390;6.136;2024-02-21T11:06:24;12.15;;;3.05;;
37201;SDS011;37799;52.390;6.136;2024-02-21T11:09:00;10.63;;;3.33;;
37201;SDS011;37799;52.390;6.136;2024-02-21T11:11:25;8.70;;;3.25;;
37201;SDS011;37799;52.390;6.136;2024-02-21T11:13:50;10.07;;;3.13;;
37201;SDS011;37799;52.390;6.136;2024-02-21T11:16:22;10.00;;;3.05;;
37201;SDS011;37799;52.390;6.136;2024-02-21T11:18:48;10.18;;;3.75;;
37201;SDS011;37799;52.390;6.136;2024-02-21T11:21:13;9.32;;;3.70;;
37201;SDS011;37799;52.390;6.136;2024-02-21T11:23:39;7.95;;;2.80;;
37201;SDS011;37799;52.390;6.136;2024-02-21T11:26:10;9.35;;;2.78;;
37201;SDS011;37799;52.390;6.136;2024-02-21T11:28:44;8.68;;;3.08;;
37201;SDS011;37799;52.390;6.136;2024-02-21T11:31:13;8.48;;;2.90;;
37201;SDS011;37799;52.390;6.136;2024-02-21T11:33:39;9.07;;;3.03;;
37201;SDS011;37799;52.390;6.136;2024-02-21T11:36:07;9.18;;;3.15;;
37201;SDS011;37799;52.390;6.136;2024-02-21T11:38:35;8.05;;;2.67;;
37201;SDS011;37799;52.390;6.136;2024-02-21T11:41:01;7.30;;;2.75;;
37201;SDS011;37799;52.390;6.136;2024-02-21T11:43:27;8.57;;;3.35;;
37201;SDS011;37799;52.390;6.136;2024-02-21T11:46:01;8.35;;;2.65;;
37201;SDS011;37799;52.390;6.136;2024-02-21T11:48:28;7.80;;;2.50;;
37201;SDS011;37799;52.390;6.136;2024-02-21T11:50:54;7.72;;;1.85;;
37201;SDS011;37799;52.390;6.136;2024-02-21T11:53:20;7.05;;;1.77;;
37201;SDS011;37799;52.390;6.136;2024-02-21T11:55:46;7.30;;;2.15;;
37201;SDS011;37799;52.390;6.136;2024-02-21T11:58:11;8.25;;;2.30;;
37201;SDS011;37799;52.390;6.136;2024-02-21T12:00:38;6.28;;;2.10;;
37201;SDS011;37799;52.390;6.136;2024-02-21T12:03:04;6.30;;;1.88;;
37201;SDS011;37799;52.390;6.136;2024-02-21T12:05:29;10.07;;;2.22;;
37201;SDS011;37799;52.390;6.136;2024-02-21T12:07:56;7.07;;;2.25;;
37201;SDS011;37799;52.390;6.136;2024-02-21T12:10:23;6.82;;;2.40;;
37201;SDS011;37799;52.390;6.136;2024-02-21T12:12:48;8.77;;;2.58;;
37201;SDS011;37799;52.390;6.136;2024-02-21T12:15:16;7.60;;;2.33;;
37201;SDS011;37799;52.390;6.136;2024-02-21T12:17:43;8.27;;;2.85;;
37201;SDS011;37799;52.390;6.136;2024-02-21T12:20:09;11.65;;;3.65;;
37201;SDS011;37799;52.390;6.136;2024-02-21T12:22:36;8.85;;;2.58;;
37201;SDS011;37799;52.390;6.136;2024-02-21T12:25:03;7.30;;;2.58;;
37201;SDS011;37799;52.390;6.136;2024-02-21T12:27:29;9.00;;;2.90;;
37201;SDS011;37799;52.390;6.136;2024-02-21T12:29:55;9.55;;;2.85;;
37201;SDS011;37799;52.390;6.136;2024-02-21T12:32:20;8.63;;;2.70;;
37201;SDS011;37799;52.390;6.136;2024-02-21T12:34:45;9.05;;;3.33;;
37201;SDS011;37799;52.390;6.136;2024-02-21T12:37:11;9.32;;;2.83;;
37201;SDS011;37799;52.390;6.136;2024-02-21T12:39:40;7.45;;;2.72;;
37201;SDS011;37799;52.390;6.136;2024-02-21T12:42:06;8.65;;;2.92;;
37201;SDS011;37799;52.390;6.136;2024-02-21T12:44:31;9.18;;;2.78;;
37201;SDS011;37799;52.390;6.136;2024-02-21T12:46:57;7.32;;;2.60;;
37201;SDS011;37799;52.390;6.136;2024-02-21T12:49:22;8.63;;;2.65;;
37201;SDS011;37799;52.390;6.136;2024-02-21T12:51:49;7.68;;;2.58;;
37201;SDS011;37799;52.390;6.136;2024-02-21T12:54:14;8.77;;;2.97;;
37201;SDS011;37799;52.390;6.136;2024-02-21T12:56:39;8.35;;;2.80;;
37201;SDS011;37799;52.390;6.136;2024-02-21T12:59:05;10.32;;;3.13;;
37201;SDS011;37799;52.390;6.136;2024-02-21T13:01:34;9.70;;;3.60;;
37201;SDS011;37799;52.390;6.136;2024-02-21T13:03:59;7.85;;;3.22;;
37201;SDS011;37799;52.390;6.136;2024-02-21T13:06:26;9.93;;;2.75;;
37201;SDS011;37799;52.390;6.136;2024-02-21T13:08:51;7.38;;;2.63;;
37201;SDS011;37799;52.390;6.136;2024-02-21T13:11:16;8.45;;;2.90;;
37201;SDS011;37799;52.390;6.136;2024-02-21T13:13:41;8.73;;;3.03;;
37201;SDS011;37799;52.390;6.136;2024-02-21T13:16:07;7.88;;;2.60;;
37201;SDS011;37799;52.390;6.136;2024-02-21T13:18:32;9.43;;;2.85;;
37201;SDS011;37799;52.390;6.136;2024-02-21T13:20:57;11.25;;;2.58;;
37201;SDS011;37799;52.390;6.136;2024-02-21T13:23:23;9.02;;;3.08;;
37201;SDS011;37799;52.390;6.136;2024-02-21T13:25:48;9.43;;;2.55;;
37201;SDS011;37799;52.390;6.136;2024-02-21T13:28:14;9.88;;;2.70;;
37201;SDS011;37799;52.390;6.136;2024-02-21T13:30:41;10.27;;;2.78;;
37201;SDS011;37799;52.390;6.136;2024-02-21T13:33:07;11.10;;;2.95;;
37201;SDS011;37799;52.390;6.136;2024-02-21T13:35:32;8.60;;;3.13;;
37201;SDS011;37799;52.390;6.136;2024-02-21T13:37:58;9.57;;;2.75;;
37201;SDS011;37799;52.390;6.136;2024-02-21T13:40:23;8.50;;;3.35;;
37201;SDS011;37799;52.390;6.136;2024-02-21T13:42:50;8.82;;;3.08;;
37201;SDS011;37799;52.390;6.136;2024-02-21T13:45:16;7.60;;;2.97;;
37201;SDS011;37799;52.390;6.136;2024-02-21T13:47:41;8.40;;;2.42;;
37201;SDS011;37799;52.390;6.136;2024-02-21T13:50:07;9.75;;;2.85;;
37201;SDS011;37799;52.390;6.136;2024-02-21T13:52:36;9.02;;;3.40;;
37201;SDS011;37799;52.390;6.136;2024-02-21T13:55:01;8.30;;;2.78;;
37201;SDS011;37799;52.390;6.136;2024-02-21T13:57:27;9.90;;;3.00;;
37201;SDS011;37799;52.390;6.136;2024-02-21T13:59:53;9.75;;;2.78;;
37201;SDS011;37799;52.390;6.136;2024-02-21T14:02:18;8.60;;;2.65;;
37201;SDS011;37799;52.390;6.136;2024-02-21T14:04:43;8.32;;;2.92;;
37201;SDS011;37799;52.390;6.136;2024-02-21T14:07:09;7.55;;;2.55;;
37201;SDS011;37799;52.390;6.136;2024-02-21T14:09:34;9.02;;;2.25;;
37201;SDS011;37799;52.390;6.136;2024-02-21T14:12:00;8.63;;;2.80;;
37201;SDS011;37799;52.390;6.136;2024-02-21T14:14:25;10.35;;;2.50;;
37201;SDS011;37799;52.390;6.136;2024-02-21T14:16:50;10.45;;;2.90;;
37201;SDS011;37799;52.390;6.136;2024-02-21T14:19:15;9.73;;;2.95;;
37201;SDS011;37799;52.390;6.136;2024-02-21T14:21:42;8.80;;;3.08;;
37201;SDS011;37799;52.390;6.136;2024-02-21T14:24:08;13.00;;;3.40;;
37201;SDS011;37799;52.390;6.136;2024-02-21T14:26:33;9.70;;;2.90;;
37201;SDS011;37799;52.390;6.136;2024-02-21T14:29:00;9.27;;;3.00;;
37201;SDS011;37799;52.390;6.136;2024-02-21T14:31:26;11.95;;;3.60;;
37201;SDS011;37799;52.390;6.136;2024-02-21T14:33:51;10.60;;;3.55;;
37201;SDS011;37799;52.390;6.136;2024-02-21T14:36:17;9.82;;;2.58;;